Report METAR

 

LIML - Milano/Linate, Italy
Distance from station: NO 27km
Dati ricevuti: 19/09/2019 10:50
DATI Obsoleti
Parz. nuvoloso
Parz. nuvoloso
 Vento da Variabile
Vento: Variabile 6 km/h
Temperatura: 16°C
P.to Rugiada: 14°C
Umidità: 88%
Barometro: 1020 hPa
Nuvole: Parz. nuvoloso
Visibility: 10 km
Cloud details: Parz. nuvoloso 305 m
Parz. nuvoloso 1829 m
2019/09/19 08:50 LIML 190850Z VRB03KT 150V250 9999 SCT010 SCT060 16/14 Q1020 NOSIG
LIME - Bergamo/Orio Ser, Italy
Distance from station: NNE 43km
Dati ricevuti: 22/09/2019 11:50
Molto nuvoloso
Molto nuvoloso
 Vento da NE
Vento: NE 6 km/h
Temperatura: 17°C
P.to Rugiada: 12°C
Umidità: 73%
Barometro: 1019 hPa
Nuvole: Molto nuvoloso
Visibility: 10 km
Cloud details: Molto nuvoloso 1829 m
2019/09/22 09:50 LIME 220950Z 05003KT 360V120 9999 BKN060 17/12 Q1019 NOSIG
 
LIMS - Piacenza, it-Afb, Italy
Distance from station: SSE 45km
Dati ricevuti: 22/09/2019 11:55
Parz. nuvoloso
Parz. nuvoloso
 Vento da SO
Vento: SO 4 km/h
Temperatura: 17°C
P.to Rugiada: 15°C
Umidità: 88%
Barometro: 1018 hPa
Nuvole: Parz. nuvoloso
Visibility: 10 km
Cloud details: Molto nuvoloso 1524 m
Parz. nuvoloso 2438 m
2019/09/22 09:55 LIMS 220955Z 22002KT 9999 BKN050 SCT080 17/15 Q1018
LIPO - Brescia/Montichi, Italy
Distance from station: ENE 65km
Dati ricevuti: 22/09/2019 11:50
Molto nuvoloso
Molto nuvoloso
 Vento da calmo
Vento: Calma
Temperatura: 17°C
P.to Rugiada: 11°C
Umidità: 68%
Barometro: 1019 hPa
Nuvole: Molto nuvoloso
Visibility: 8 km
Cloud details: Molto nuvoloso 1219 m
2019/09/22 09:50 LIPO 220950Z 00000KT 8000 BKN040 17/11 Q1019